Time;durP1;ratioP1;P1;durP2;ratioP2;P2;SDS_P1;SDS_P2;PMS_P1;PMS_P2;Temp;Humidity;BMP_temperature;BMP_pressure;BME280_temperature;BME280_humidity;BME280_pressure;Samples;Min_cycle;Max_cycle;Signal;HPM_P1;HPM_P2
2024/03/20 00:01:20;;;;;;;37.72;14.13;;;;;;;;;;5061832;28;20024;-67
2024/03/20 00:04:07;;;;;;;28.20;11.50;;;;;;;;;;5053224;28;20052;-66
2024/03/20 00:06:53;;;;;;;26.25;10.57;;;;;;;;;;5036894;28;20107;-66
2024/03/20 00:09:39;;;;;;;24.92;11.63;;;;;;;;;;5053966;28;20021;-67
2024/03/20 00:12:24;;;;;;;26.73;9.73;;;;;;;;;;5053768;28;20021;-66
2024/03/20 00:15:10;;;;;;;28.38;10.98;;;;;;;;;;5051509;28;20506;-66
2024/03/20 00:17:55;;;;;;;28.63;11.40;;;;;;;;;;5057717;28;20074;-67
2024/03/20 00:20:41;;;;;;;26.27;11.43;;;;;;;;;;5052036;28;20090;-67
2024/03/20 00:23:27;;;;;;;24.10;10.43;;;;;;;;;;5051200;28;20371;-66
2024/03/20 00:26:13;;;;;;;26.13;10.63;;;;;;;;;;5056698;28;20032;-66
2024/03/20 00:28:58;;;;;;;21.25;10.52;;;;;;;;;;5051515;28;20430;-67
2024/03/20 00:31:44;;;;;;;29.00;10.07;;;;;;;;;;5051185;28;20033;-67
2024/03/20 00:34:30;;;;;;;19.65;8.90;;;;;;;;;;5065628;28;20032;-66
2024/03/20 00:37:15;;;;;;;23.58;9.55;;;;;;;;;;5070783;28;20426;-66
2024/03/20 00:40:01;;;;;;;21.10;9.77;;;;;;;;;;5071168;28;20028;-67
2024/03/20 00:42:47;;;;;;;25.13;10.07;;;;;;;;;;5057758;28;20495;-67
2024/03/20 00:45:32;;;;;;;25.73;9.38;;;;;;;;;;5052746;28;20102;-66
2024/03/20 00:48:18;;;;;;;24.35;11.35;;;;;;;;;;5051946;28;20032;-67
2024/03/20 00:51:04;;;;;;;24.42;10.45;;;;;;;;;;5056517;28;20794;-66
2024/03/20 00:53:49;;;;;;;25.55;10.68;;;;;;;;;;5072624;28;20401;-66
2024/03/20 00:56:35;;;;;;;24.88;10.18;;;;;;;;;;5073541;28;20055;-66
2024/03/20 00:59:21;;;;;;;19.40;9.40;;;;;;;;;;5055544;28;20104;-66
2024/03/20 01:02:06;;;;;;;25.38;10.13;;;;;;;;;;5056016;28;20017;-66
2024/03/20 01:04:52;;;;;;;24.33;10.18;;;;;;;;;;5055109;28;20087;-67
2024/03/20 01:07:37;;;;;;;25.50;12.07;;;;;;;;;;5057814;28;20075;-65
2024/03/20 01:10:23;;;;;;;24.77;10.13;;;;;;;;;;5055743;28;20021;-67
2024/03/20 01:13:09;;;;;;;26.38;9.93;;;;;;;;;;5064768;28;20396;-67
2024/03/20 01:15:54;;;;;;;30.17;10.18;;;;;;;;;;5056640;28;20475;-66
2024/03/20 01:18:40;;;;;;;28.70;10.63;;;;;;;;;;5056535;28;20032;-67
2024/03/20 01:21:26;;;;;;;26.95;9.80;;;;;;;;;;5054788;28;20108;-66
2024/03/20 01:24:12;;;;;;;30.17;10.85;;;;;;;;;;5060978;28;20070;-67
2024/03/20 01:26:57;;;;;;;26.77;11.48;;;;;;;;;;5069414;28;20016;-67
2024/03/20 01:29:43;;;;;;;32.45;11.00;;;;;;;;;;5073448;28;20119;-66
2024/03/20 01:32:28;;;;;;;31.00;10.57;;;;;;;;;;5074555;28;20487;-67
2024/03/20 01:35:14;;;;;;;34.65;10.75;;;;;;;;;;5073803;28;20086;-66
2024/03/20 01:38:00;;;;;;;25.95;11.75;;;;;;;;;;5075291;28;20035;-66
2024/03/20 01:40:45;;;;;;;28.17;10.88;;;;;;;;;;5073485;28;20581;-67
2024/03/20 01:43:31;;;;;;;26.55;11.07;;;;;;;;;;5072838;28;20021;-66
2024/03/20 01:46:33;;;;;;;30.33;10.57;;;;;;;;;;5056626;28;20017;-67
2024/03/20 01:49:19;;;;;;;28.23;11.52;;;;;;;;;;5050525;28;20509;-66
2024/03/20 01:52:06;;;;;;;31.42;10.68;;;;;;;;;;5073793;28;20047;-67
2024/03/20 01:54:51;;;;;;;28.05;12.00;;;;;;;;;;5073532;28;20534;-67
2024/03/20 01:57:37;;;;;;;31.02;11.20;;;;;;;;;;5073578;28;20111;-67
2024/03/20 02:00:27;;;;;;;27.40;11.95;;;;;;;;;;5069006;28;20024;-67
2024/03/20 02:03:16;;;;;;;28.70;11.63;;;;;;;;;;5072294;28;20082;-67
2024/03/20 02:06:03;;;;;;;27.73;11.07;;;;;;;;;;5054242;28;20025;-67
2024/03/20 02:08:54;;;;;;;24.10;10.15;;;;;;;;;;5058592;28;20059;-67
2024/03/20 02:11:40;;;;;;;20.00;9.05;;;;;;;;;;5038890;28;20400;-67
2024/03/20 02:14:26;;;;;;;25.42;10.80;;;;;;;;;;5055473;28;20032;-67
2024/03/20 02:17:13;;;;;;;27.85;10.63;;;;;;;;;;5067592;28;20490;-67
2024/03/20 02:19:58;;;;;;;32.63;12.60;;;;;;;;;;5056056;28;20112;-66
2024/03/20 02:22:44;;;;;;;29.15;11.48;;;;;;;;;;5073857;28;20016;-67
2024/03/20 02:25:30;;;;;;;19.08;10.02;;;;;;;;;;5067692;28;20035;-66
2024/03/20 02:28:16;;;;;;;25.00;10.52;;;;;;;;;;5053832;28;20065;-66
2024/03/20 02:31:02;;;;;;;29.88;12.25;;;;;;;;;;5056386;28;20100;-67
2024/03/20 02:33:47;;;;;;;29.58;11.15;;;;;;;;;;5073015;28;20016;-67
2024/03/20 02:36:33;;;;;;;23.77;9.48;;;;;;;;;;5070935;28;20082;-67
2024/03/20 02:39:19;;;;;;;23.30;9.82;;;;;;;;;;5071675;28;20109;-66
2024/03/20 02:42:05;;;;;;;23.38;10.32;;;;;;;;;;5070316;28;20032;-66
2024/03/20 02:44:51;;;;;;;21.02;9.48;;;;;;;;;;5052713;28;20024;-66
2024/03/20 02:47:37;;;;;;;21.05;10.15;;;;;;;;;;5054397;28;20108;-66
2024/03/20 02:50:22;;;;;;;25.33;10.95;;;;;;;;;;5052924;28;20025;-66
2024/03/20 02:53:08;;;;;;;31.35;12.57;;;;;;;;;;5051885;28;20021;-67
2024/03/20 02:55:54;;;;;;;32.33;11.63;;;;;;;;;;5053650;28;20025;-67
2024/03/20 02:58:39;;;;;;;31.70;12.60;;;;;;;;;;5054074;28;20557;-67
2024/03/20 03:01:25;;;;;;;28.23;12.45;;;;;;;;;;5053045;28;20079;-66
2024/03/20 03:04:10;;;;;;;30.63;12.93;;;;;;;;;;5053052;28;20399;-66
2024/03/20 03:06:56;;;;;;;29.83;12.25;;;;;;;;;;5054393;28;20025;-66
2024/03/20 03:09:42;;;;;;;30.83;13.75;;;;;;;;;;5054224;28;20025;-66
2024/03/20 03:12:28;;;;;;;31.10;14.80;;;;;;;;;;5053111;28;20021;-66
2024/03/20 03:15:14;;;;;;;32.03;13.07;;;;;;;;;;5052399;28;20418;-66
2024/03/20 03:18:00;;;;;;;32.17;12.05;;;;;;;;;;5052501;28;20032;-67
2024/03/20 03:20:46;;;;;;;27.67;13.15;;;;;;;;;;5052131;28;20112;-67
2024/03/20 03:23:31;;;;;;;28.20;11.80;;;;;;;;;;5052240;28;20017;-66
2024/03/20 03:26:17;;;;;;;26.13;12.82;;;;;;;;;;5053873;28;20017;-66
2024/03/20 03:29:03;;;;;;;30.80;13.52;;;;;;;;;;5053001;28;20104;-66
2024/03/20 03:31:48;;;;;;;34.33;13.68;;;;;;;;;;5053977;28;20025;-66
2024/03/20 03:34:34;;;;;;;27.35;12.27;;;;;;;;;;5051544;28;20033;-67
2024/03/20 03:37:20;;;;;;;32.50;13.07;;;;;;;;;;5053126;28;20490;-66
2024/03/20 03:40:09;;;;;;;33.53;13.10;;;;;;;;;;5053315;28;20056;-67
2024/03/20 03:42:55;;;;;;;34.88;12.30;;;;;;;;;;5053275;28;20025;-66
2024/03/20 03:45:40;;;;;;;33.55;13.52;;;;;;;;;;5051570;28;20021;-67
2024/03/20 03:48:27;;;;;;;26.20;11.80;;;;;;;;;;5052153;28;20505;-67
2024/03/20 03:51:13;;;;;;;33.10;12.27;;;;;;;;;;5052234;28;20064;-67
2024/03/20 03:53:59;;;;;;;22.70;12.25;;;;;;;;;;5052194;28;20078;-66
2024/03/20 03:56:45;;;;;;;28.25;11.48;;;;;;;;;;5052674;28;20021;-66
2024/03/20 03:59:30;;;;;;;26.55;11.57;;;;;;;;;;5052409;28;20391;-67
2024/03/20 04:02:17;;;;;;;24.33;9.57;;;;;;;;;;5054139;28;20390;-66
2024/03/20 04:05:04;;;;;;;22.45;11.07;;;;;;;;;;5052432;28;20036;-67
2024/03/20 04:07:53;;;;;;;23.42;11.15;;;;;;;;;;5053034;28;20079;-66
2024/03/20 04:10:39;;;;;;;21.25;9.13;;;;;;;;;;5051773;28;20025;-66
2024/03/20 04:13:25;;;;;;;21.92;10.30;;;;;;;;;;5051765;28;20025;-66
2024/03/20 04:16:10;;;;;;;19.75;9.35;;;;;;;;;;5050336;28;20056;-67
2024/03/20 04:18:56;;;;;;;28.27;11.80;;;;;;;;;;5062168;28;20025;-67
2024/03/20 04:21:41;;;;;;;32.88;12.50;;;;;;;;;;5057773;28;20020;-66
2024/03/20 04:24:27;;;;;;;26.55;12.32;;;;;;;;;;5070668;28;20020;-66
2024/03/20 04:27:13;;;;;;;33.35;13.38;;;;;;;;;;5071427;28;20111;-66
2024/03/20 04:29:58;;;;;;;34.28;13.75;;;;;;;;;;5070770;28;20503;-66
2024/03/20 04:32:44;;;;;;;28.77;13.00;;;;;;;;;;5071421;28;20024;-67
2024/03/20 04:35:31;;;;;;;27.50;12.68;;;;;;;;;;5071834;28;20135;-67
2024/03/20 04:38:17;;;;;;;29.02;12.10;;;;;;;;;;5070474;28;20493;-67
2024/03/20 04:41:08;;;;;;;29.10;12.43;;;;;;;;;;5071181;28;20051;-66
2024/03/20 04:43:53;;;;;;;25.58;12.05;;;;;;;;;;5071792;28;20062;-67
2024/03/20 04:46:39;;;;;;;31.75;14.27;;;;;;;;;;5071387;28;20021;-67
2024/03/20 04:49:25;;;;;;;31.30;12.40;;;;;;;;;;5071004;28;20020;-66
2024/03/20 04:52:11;;;;;;;30.05;12.70;;;;;;;;;;5071944;28;20078;-67
2024/03/20 04:54:56;;;;;;;29.48;13.00;;;;;;;;;;5071363;28;20031;-67
2024/03/20 04:57:42;;;;;;;32.47;12.57;;;;;;;;;;5070656;28;20021;-67
2024/03/20 05:00:27;;;;;;;29.15;12.23;;;;;;;;;;5071771;28;20397;-67
2024/03/20 05:03:13;;;;;;;29.80;12.38;;;;;;;;;;5071563;28;20025;-67
2024/03/20 05:05:59;;;;;;;27.27;12.82;;;;;;;;;;5071738;28;20159;-67
2024/03/20 05:08:44;;;;;;;32.05;13.68;;;;;;;;;;5071225;28;20520;-67
2024/03/20 05:11:31;;;;;;;32.38;13.95;;;;;;;;;;5070727;28;20103;-67
2024/03/20 05:14:17;;;;;;;30.30;13.55;;;;;;;;;;5071158;28;20104;-65
2024/03/20 05:17:03;;;;;;;32.03;14.82;;;;;;;;;;5070768;28;20090;-67
2024/03/20 05:19:49;;;;;;;32.13;13.77;;;;;;;;;;5071403;28;20039;-67
2024/03/20 05:22:35;;;;;;;29.45;12.95;;;;;;;;;;5071343;28;20154;-67
2024/03/20 05:25:21;;;;;;;20.73;9.40;;;;;;;;;;5071094;28;20031;-67
2024/03/20 05:28:06;;;;;;;25.83;12.15;;;;;;;;;;5071448;28;20021;-67
2024/03/20 05:30:52;;;;;;;27.27;12.52;;;;;;;;;;5070579;28;20020;-67
2024/03/20 05:33:38;;;;;;;35.20;14.80;;;;;;;;;;5071365;28;20025;-67
2024/03/20 05:36:23;;;;;;;29.77;14.75;;;;;;;;;;5112445;23;20051;-65
2024/03/20 05:39:11;;;;;;;39.95;16.90;;;;;;;;;;5116211;28;20020;-67
2024/03/20 05:41:57;;;;;;;46.38;18.80;;;;;;;;;;5115054;28;20034;-67
2024/03/20 05:44:42;;;;;;;31.45;15.48;;;;;;;;;;5115710;28;20350;-67
2024/03/20 05:47:28;;;;;;;37.33;15.05;;;;;;;;;;5095096;28;20035;-67
2024/03/20 05:50:14;;;;;;;32.72;14.52;;;;;;;;;;5094338;28;20503;-67
2024/03/20 05:52:59;;;;;;;26.98;13.73;;;;;;;;;;5095836;28;20023;-67
2024/03/20 05:55:45;;;;;;;28.13;13.30;;;;;;;;;;5092950;28;20497;-64
2024/03/20 05:58:31;;;;;;;34.05;14.80;;;;;;;;;;5078453;28;20059;-67
2024/03/20 06:01:16;;;;;;;54.95;19.65;;;;;;;;;;5077226;28;20025;-67
2024/03/20 06:04:02;;;;;;;63.95;18.50;;;;;;;;;;5074440;28;20456;-67
2024/03/20 06:06:48;;;;;;;69.90;21.55;;;;;;;;;;5073811;28;20021;-67
2024/03/20 06:09:34;;;;;;;51.72;20.55;;;;;;;;;;5074904;28;20316;-67
2024/03/20 06:12:19;;;;;;;52.80;19.63;;;;;;;;;;5088482;28;20020;-66
2024/03/20 06:15:05;;;;;;;61.63;20.65;;;;;;;;;;5074202;28;20021;-67
2024/03/20 06:17:51;;;;;;;54.75;21.50;;;;;;;;;;5079665;28;20048;-67
2024/03/20 06:20:38;;;;;;;56.75;18.42;;;;;;;;;;5093556;28;20049;-67
2024/03/20 06:23:23;;;;;;;58.55;20.10;;;;;;;;;;5093862;28;20053;-66
2024/03/20 06:26:09;;;;;;;51.45;21.50;;;;;;;;;;5092629;28;20080;-66
2024/03/20 06:28:55;;;;;;;59.67;19.50;;;;;;;;;;5079796;28;20034;-67
2024/03/20 06:31:42;;;;;;;76.95;22.10;;;;;;;;;;5073066;28;20032;-67
2024/03/20 06:34:28;;;;;;;53.97;18.10;;;;;;;;;;5073343;28;20021;-67
2024/03/20 06:37:14;;;;;;;71.97;21.50;;;;;;;;;;5056010;28;20127;-67
2024/03/20 06:40:00;;;;;;;65.45;20.75;;;;;;;;;;5054170;28;20052;-67
2024/03/20 06:42:46;;;;;;;63.72;18.90;;;;;;;;;;5054736;28;20108;-67
2024/03/20 06:45:34;;;;;;;61.78;17.83;;;;;;;;;;5054606;28;20013;-67
2024/03/20 06:48:21;;;;;;;56.53;18.20;;;;;;;;;;5054923;28;20112;-67
2024/03/20 06:51:08;;;;;;;47.97;17.10;;;;;;;;;;5053681;28;20429;-67
2024/03/20 06:53:54;;;;;;;72.38;19.05;;;;;;;;;;5053646;28;20057;-67
2024/03/20 06:56:44;;;;;;;65.85;21.60;;;;;;;;;;5057086;28;20031;-67
2024/03/20 06:59:30;;;;;;;48.40;18.02;;;;;;;;;;5072612;28;20071;-67
2024/03/20 07:02:16;;;;;;;58.55;17.05;;;;;;;;;;5056009;28;20033;-67
2024/03/20 07:05:01;;;;;;;63.75;18.17;;;;;;;;;;5053566;28;20032;-66
2024/03/20 07:07:47;;;;;;;68.85;18.30;;;;;;;;;;5053870;28;20027;-66
2024/03/20 07:10:33;;;;;;;50.97;16.55;;;;;;;;;;5053607;28;20155;-67
2024/03/20 07:13:18;;;;;;;62.22;18.02;;;;;;;;;;5052915;28;20024;-67
2024/03/20 07:16:06;;;;;;;60.60;16.55;;;;;;;;;;5054373;28;20055;-66
2024/03/20 07:18:52;;;;;;;59.38;16.05;;;;;;;;;;5070012;28;20113;-66
2024/03/20 07:21:39;;;;;;;66.85;18.40;;;;;;;;;;5072910;28;20106;-66
2024/03/20 07:24:24;;;;;;;54.63;16.58;;;;;;;;;;5073016;28;20020;-66
2024/03/20 07:27:11;;;;;;;57.33;19.45;;;;;;;;;;5070918;28;20462;-66
2024/03/20 07:29:57;;;;;;;52.72;19.33;;;;;;;;;;5052283;28;20033;-66
2024/03/20 07:32:42;;;;;;;55.28;16.98;;;;;;;;;;5066997;28;20413;-66
2024/03/20 07:35:29;;;;;;;61.00;16.80;;;;;;;;;;5073763;28;20032;-66
2024/03/20 07:38:15;;;;;;;55.35;16.08;;;;;;;;;;5093148;28;20073;-67
2024/03/20 07:41:01;;;;;;;47.28;15.32;;;;;;;;;;5091930;28;20056;-66
2024/03/20 07:43:47;;;;;;;39.85;13.85;;;;;;;;;;5093594;28;20020;-66
2024/03/20 07:46:32;;;;;;;48.60;15.10;;;;;;;;;;5088659;28;20512;-66
2024/03/20 07:49:18;;;;;;;48.03;15.43;;;;;;;;;;5072798;28;20036;-66
2024/03/20 07:52:05;;;;;;;51.70;14.88;;;;;;;;;;5091897;28;20092;-66
2024/03/20 07:54:50;;;;;;;47.78;17.33;;;;;;;;;;5091071;28;20085;-66
2024/03/20 07:57:36;;;;;;;38.97;14.40;;;;;;;;;;5091115;28;20105;-67
2024/03/20 08:00:28;;;;;;;44.63;16.55;;;;;;;;;;5091955;28;20024;-66
2024/03/20 08:03:13;;;;;;;37.53;14.20;;;;;;;;;;5079311;28;20415;-66
2024/03/20 08:05:59;;;;;;;45.33;15.35;;;;;;;;;;5090939;28;20081;-66
2024/03/20 08:08:45;;;;;;;41.47;14.07;;;;;;;;;;5091911;28;20024;-66
2024/03/20 08:11:30;;;;;;;42.03;16.35;;;;;;;;;;5092769;28;20039;-66
2024/03/20 08:14:16;;;;;;;38.55;14.13;;;;;;;;;;5090452;28;20028;-66
2024/03/20 08:17:02;;;;;;;40.53;13.77;;;;;;;;;;5091698;28;20039;-66
2024/03/20 08:19:48;;;;;;;40.35;14.35;;;;;;;;;;5091879;28;20024;-66
2024/03/20 08:22:33;;;;;;;46.33;14.57;;;;;;;;;;5091167;28;20024;-65
2024/03/20 08:25:19;;;;;;;46.13;14.98;;;;;;;;;;5087686;28;20401;-65
2024/03/20 08:28:05;;;;;;;49.40;14.90;;;;;;;;;;5072896;28;20024;-66
2024/03/20 08:30:50;;;;;;;55.20;16.10;;;;;;;;;;5072631;28;20031;-64
2024/03/20 08:33:36;;;;;;;43.85;14.70;;;;;;;;;;5088471;28;20052;-65
2024/03/20 08:36:22;;;;;;;46.55;15.70;;;;;;;;;;5082138;28;20401;-66
2024/03/20 08:39:08;;;;;;;39.15;13.93;;;;;;;;;;5072250;28;20536;-66
2024/03/20 08:41:53;;;;;;;46.83;15.00;;;;;;;;;;5066048;28;20058;-65
2024/03/20 08:44:40;;;;;;;45.67;15.52;;;;;;;;;;5052563;28;20021;-66
2024/03/20 08:47:26;;;;;;;39.50;14.07;;;;;;;;;;5059974;28;20024;-66
2024/03/20 08:50:13;;;;;;;39.75;15.05;;;;;;;;;;5058648;28;20567;-66
2024/03/20 08:52:58;;;;;;;46.25;16.17;;;;;;;;;;5057493;28;20029;-66
2024/03/20 08:55:45;;;;;;;43.60;14.40;;;;;;;;;;5070826;28;20025;-66
2024/03/20 08:58:31;;;;;;;35.83;15.13;;;;;;;;;;5053502;28;20100;-67
2024/03/20 09:01:17;;;;;;;41.88;15.50;;;;;;;;;;5051916;28;20406;-67
2024/03/20 09:04:03;;;;;;;48.58;19.08;;;;;;;;;;5056288;28;20099;-67
2024/03/20 09:06:49;;;;;;;47.65;19.80;;;;;;;;;;5069195;28;20048;-67
2024/03/20 09:09:34;;;;;;;55.20;21.67;;;;;;;;;;5071153;28;20021;-66
2024/03/20 09:12:20;;;;;;;61.90;25.80;;;;;;;;;;5059578;28;20489;-67
2024/03/20 09:15:06;;;;;;;59.03;22.00;;;;;;;;;;5060770;28;20033;-67
2024/03/20 09:17:52;;;;;;;68.38;25.02;;;;;;;;;;5062561;28;20021;-67
2024/03/20 09:20:40;;;;;;;51.53;21.52;;;;;;;;;;5076271;28;20114;-67
2024/03/20 09:23:26;;;;;;;44.13;16.80;;;;;;;;;;5075856;28;20029;-67
2024/03/20 09:26:12;;;;;;;42.00;14.00;;;;;;;;;;5060650;28;20016;-67
2024/03/20 09:28:58;;;;;;;35.22;13.63;;;;;;;;;;5061502;28;20020;-67
2024/03/20 09:31:43;;;;;;;45.28;14.40;;;;;;;;;;5074746;28;20064;-67
2024/03/20 09:34:29;;;;;;;37.40;14.40;;;;;;;;;;5075562;28;20378;-68
2024/03/20 09:37:17;;;;;;;44.97;15.07;;;;;;;;;;5074634;28;20033;-67
2024/03/20 09:40:12;;;;;;;37.88;13.70;;;;;;;;;;5061173;28;20486;-67
2024/03/20 09:42:57;;;;;;;43.60;15.02;;;;;;;;;;5075286;28;20485;-67
2024/03/20 09:45:43;;;;;;;41.10;14.90;;;;;;;;;;5061352;28;20402;-67
2024/03/20 09:48:29;;;;;;;36.00;13.13;;;;;;;;;;5066654;28;20025;-67
2024/03/20 09:51:19;;;;;;;35.42;14.35;;;;;;;;;;5061817;28;20048;-67
2024/03/20 09:54:05;;;;;;;38.70;14.35;;;;;;;;;;5060888;28;20028;-68
2024/03/20 09:56:51;;;;;;;31.38;13.55;;;;;;;;;;5061942;28;20493;-68
2024/03/20 09:59:37;;;;;;;36.45;15.52;;;;;;;;;;5048035;28;20036;-67
2024/03/20 10:02:22;;;;;;;30.85;13.77;;;;;;;;;;5060308;28;20048;-68
2024/03/20 10:05:08;;;;;;;32.22;13.73;;;;;;;;;;5048333;28;20047;-67
2024/03/20 10:07:54;;;;;;;33.42;14.32;;;;;;;;;;5060986;28;20052;-68
2024/03/20 10:10:42;;;;;;;42.65;14.93;;;;;;;;;;5061261;28;20031;-67
2024/03/20 10:13:28;;;;;;;34.72;12.77;;;;;;;;;;5040011;28;20108;-67
2024/03/20 10:16:14;;;;;;;30.95;13.05;;;;;;;;;;5053422;28;20024;-67
2024/03/20 10:19:00;;;;;;;26.67;13.10;;;;;;;;;;5061245;28;20502;-68
2024/03/20 10:21:45;;;;;;;35.80;13.95;;;;;;;;;;5052911;28;20025;-67
2024/03/20 10:24:32;;;;;;;41.58;13.18;;;;;;;;;;5054329;28;20435;-67
2024/03/20 10:27:19;;;;;;;42.20;13.93;;;;;;;;;;5056676;28;20033;-67
2024/03/20 10:30:11;;;;;;;41.78;14.82;;;;;;;;;;5053648;28;20033;-67
2024/03/20 10:32:58;;;;;;;28.83;13.13;;;;;;;;;;5041435;28;20032;-67
2024/03/20 10:35:48;;;;;;;35.38;14.40;;;;;;;;;;5058554;28;20036;-67
2024/03/20 10:38:34;;;;;;;44.72;16.45;;;;;;;;;;5073512;28;20107;-68
2024/03/20 10:41:20;;;;;;;38.95;13.65;;;;;;;;;;5072922;28;20051;-67
2024/03/20 10:44:07;;;;;;;36.50;14.95;;;;;;;;;;5059494;28;20141;-67
2024/03/20 10:46:54;;;;;;;41.80;14.52;;;;;;;;;;5078233;28;20078;-67
2024/03/20 10:49:39;;;;;;;39.72;14.35;;;;;;;;;;5073268;28;20394;-67
2024/03/20 10:52:25;;;;;;;37.60;13.95;;;;;;;;;;5073182;28;20016;-68
2024/03/20 10:55:12;;;;;;;36.70;15.57;;;;;;;;;;5073324;28;20024;-67
2024/03/20 10:57:58;;;;;;;36.95;14.35;;;;;;;;;;5059881;28;20103;-68
2024/03/20 11:00:54;;;;;;;40.42;14.82;;;;;;;;;;5062939;28;20050;-66
2024/03/20 11:03:42;;;;;;;35.55;13.27;;;;;;;;;;5094335;28;20381;-67
2024/03/20 11:06:28;;;;;;;37.08;13.52;;;;;;;;;;5093680;28;20085;-67
2024/03/20 11:09:20;;;;;;;40.38;13.02;;;;;;;;;;5094539;28;20055;-67
2024/03/20 11:12:26;;;;;;;38.45;12.70;;;;;;;;;;5092281;28;20066;-68
2024/03/20 11:15:15;;;;;;;32.72;13.13;;;;;;;;;;5076868;28;20017;-67
2024/03/20 11:18:01;;;;;;;37.00;12.90;;;;;;;;;;5079104;28;20028;-67
2024/03/20 11:20:47;;;;;;;26.90;11.48;;;;;;;;;;5073303;28;20024;-68
2024/03/20 11:23:35;;;;;;;32.63;11.70;;;;;;;;;;5073053;28;20020;-67
2024/03/20 11:26:21;;;;;;;38.42;14.00;;;;;;;;;;5080663;28;20024;-67
2024/03/20 11:29:11;;;;;;;32.33;11.95;;;;;;;;;;5092239;28;20129;-67
2024/03/20 11:31:57;;;;;;;31.48;11.60;;;;;;;;;;5091227;28;20028;-67
2024/03/20 11:34:43;;;;;;;35.55;12.52;;;;;;;;;;5077738;28;20066;-67
2024/03/20 11:37:29;;;;;;;30.83;11.48;;;;;;;;;;5073520;28;20059;-67
2024/03/20 11:40:14;;;;;;;36.47;12.48;;;;;;;;;;5072222;28;20485;-67
2024/03/20 11:43:00;;;;;;;38.47;12.75;;;;;;;;;;5072273;28;20024;-67
2024/03/20 11:45:47;;;;;;;31.73;13.50;;;;;;;;;;5072294;28;20051;-67
2024/03/20 11:48:33;;;;;;;32.45;12.55;;;;;;;;;;5072962;28;20025;-67
2024/03/20 11:51:28;;;;;;;39.33;13.52;;;;;;;;;;5071646;28;20031;-67
2024/03/20 11:54:13;;;;;;;39.10;12.73;;;;;;;;;;5071948;28;20039;-67
2024/03/20 11:57:00;;;;;;;38.53;11.98;;;;;;;;;;5057683;28;20028;-67
2024/03/20 11:59:46;;;;;;;39.25;13.18;;;;;;;;;;5072720;28;20032;-67
2024/03/20 12:02:34;;;;;;;39.65;13.63;;;;;;;;;;5058419;28;20385;-67
2024/03/20 12:05:26;;;;;;;34.15;12.75;;;;;;;;;;5071247;28;20021;-67
2024/03/20 12:08:17;;;;;;;37.75;13.80;;;;;;;;;;5073044;28;20078;-67
2024/03/20 12:11:26;;;;;;;30.25;11.88;;;;;;;;;;5071606;28;20025;-67
2024/03/20 12:14:12;;;;;;;34.13;13.20;;;;;;;;;;5072413;28;20028;-67
2024/03/20 12:16:57;;;;;;;42.70;16.50;;;;;;;;;;5071142;28;20036;-67
2024/03/20 12:19:43;;;;;;;37.58;13.45;;;;;;;;;;5072095;28;20078;-67
2024/03/20 12:22:29;;;;;;;36.25;14.15;;;;;;;;;;5072191;28;20082;-67
2024/03/20 12:25:14;;;;;;;37.88;12.82;;;;;;;;;;5072028;28;20024;-67
2024/03/20 12:28:00;;;;;;;31.13;12.75;;;;;;;;;;5072343;28;20032;-67
2024/03/20 12:30:46;;;;;;;29.75;13.23;;;;;;;;;;5071221;28;20032;-67
2024/03/20 12:33:31;;;;;;;33.22;12.68;;;;;;;;;;5071782;28;20056;-67
2024/03/20 12:36:18;;;;;;;29.85;12.88;;;;;;;;;;5071951;28;20036;-67
2024/03/20 12:39:05;;;;;;;31.88;13.00;;;;;;;;;;5071607;28;20025;-67
2024/03/20 12:41:50;;;;;;;26.05;13.95;;;;;;;;;;5071658;28;20134;-67
2024/03/20 12:44:36;;;;;;;41.50;13.80;;;;;;;;;;5071489;28;20077;-67
2024/03/20 12:47:22;;;;;;;29.88;12.55;;;;;;;;;;5071282;28;20450;-67
2024/03/20 12:50:11;;;;;;;29.23;12.43;;;;;;;;;;5070953;28;20031;-68
2024/03/20 12:52:56;;;;;;;32.45;12.85;;;;;;;;;;5070882;28;20024;-68
2024/03/20 12:55:42;;;;;;;29.52;12.10;;;;;;;;;;5071829;28;20033;-68
2024/03/20 12:58:28;;;;;;;31.42;12.30;;;;;;;;;;5071955;28;20043;-67
2024/03/20 13:01:14;;;;;;;30.67;13.40;;;;;;;;;;5071626;28;20103;-67
2024/03/20 13:04:00;;;;;;;32.17;11.25;;;;;;;;;;5070776;28;20021;-67
2024/03/20 13:06:45;;;;;;;30.35;12.18;;;;;;;;;;5071213;28;20100;-67
2024/03/20 13:09:31;;;;;;;27.42;11.05;;;;;;;;;;5071304;28;20021;-67
2024/03/20 13:12:18;;;;;;;25.73;10.98;;;;;;;;;;5071394;28;20017;-67
2024/03/20 13:15:06;;;;;;;24.10;11.55;;;;;;;;;;5072038;28;20497;-67
2024/03/20 13:17:51;;;;;;;29.73;11.52;;;;;;;;;;5071232;28;20032;-67
2024/03/20 13:20:37;;;;;;;28.75;11.60;;;;;;;;;;5071415;28;20440;-67
2024/03/20 13:23:23;;;;;;;25.20;11.98;;;;;;;;;;5071696;28;20122;-68
2024/03/20 13:26:12;;;;;;;20.55;10.20;;;;;;;;;;5071210;28;20486;-68
2024/03/20 13:28:58;;;;;;;24.55;10.27;;;;;;;;;;5071101;28;20067;-67
2024/03/20 13:31:44;;;;;;;24.65;8.88;;;;;;;;;;5070499;28;20021;-68
2024/03/20 13:34:31;;;;;;;23.30;9.10;;;;;;;;;;5056754;28;20025;-68
2024/03/20 13:37:18;;;;;;;20.80;8.65;;;;;;;;;;5072516;28;20056;-68
2024/03/20 13:40:16;;;;;;;22.25;8.95;;;;;;;;;;5071591;28;20517;-68
2024/03/20 13:46:00;;;;;;;26.05;8.43;;;;;;;;;;5070406;28;20017;-68
2024/03/20 13:48:46;;;;;;;23.35;7.68;;;;;;;;;;5070570;28;20017;-68
2024/03/20 13:51:32;;;;;;;20.48;8.02;;;;;;;;;;5056595;28;20458;-68
2024/03/20 13:54:19;;;;;;;17.65;8.25;;;;;;;;;;5071339;28;20401;-68
2024/03/20 13:57:11;;;;;;;19.40;8.30;;;;;;;;;;5071018;28;20031;-68
2024/03/20 13:59:57;;;;;;;23.30;7.70;;;;;;;;;;5074844;28;20104;-68
2024/03/20 14:02:43;;;;;;;25.38;8.88;;;;;;;;;;5074314;28;20028;-68
2024/03/20 14:05:28;;;;;;;23.13;9.02;;;;;;;;;;5073935;28;20028;-68
2024/03/20 14:08:18;;;;;;;24.67;9.38;;;;;;;;;;5074598;28;20023;-68
2024/03/20 14:11:04;;;;;;;20.33;8.43;;;;;;;;;;5075290;28;20028;-68
2024/03/20 14:13:50;;;;;;;27.52;10.43;;;;;;;;;;5060240;28;20052;-68
2024/03/20 14:16:36;;;;;;;31.77;10.40;;;;;;;;;;5073390;28;20416;-68
2024/03/20 14:19:22;;;;;;;21.35;10.10;;;;;;;;;;5074142;28;20074;-68
2024/03/20 14:22:11;;;;;;;21.08;10.80;;;;;;;;;;5074385;28;20091;-68
2024/03/20 14:24:57;;;;;;;23.33;9.80;;;;;;;;;;5074939;28;20111;-68
2024/03/20 14:27:43;;;;;;;26.50;11.07;;;;;;;;;;5074563;28;20082;-68
2024/03/20 14:30:29;;;;;;;33.20;11.60;;;;;;;;;;5073565;28;20052;-67
2024/03/20 14:33:15;;;;;;;28.00;11.00;;;;;;;;;;5068620;28;20059;-68
2024/03/20 14:36:00;;;;;;;22.55;11.07;;;;;;;;;;5074238;28;20059;-68
2024/03/20 14:38:46;;;;;;;23.70;10.95;;;;;;;;;;5091011;28;20095;-68
2024/03/20 14:41:31;;;;;;;24.80;10.68;;;;;;;;;;5078837;28;20020;-68
2024/03/20 14:44:17;;;;;;;26.08;10.55;;;;;;;;;;5093560;28;20024;-68
2024/03/20 14:47:06;;;;;;;26.63;11.38;;;;;;;;;;5092062;28;20500;-67
2024/03/20 14:49:52;;;;;;;23.73;10.70;;;;;;;;;;5079118;28;20046;-67
2024/03/20 14:52:38;;;;;;;24.00;11.77;;;;;;;;;;5093506;28;20027;-68
2024/03/20 14:55:23;;;;;;;26.02;10.63;;;;;;;;;;5093357;28;20062;-68
2024/03/20 14:58:09;;;;;;;25.15;9.98;;;;;;;;;;5079216;28;20108;-68
2024/03/20 15:00:55;;;;;;;23.08;10.05;;;;;;;;;;5093929;28;20103;-68
2024/03/20 15:03:41;;;;;;;24.25;10.55;;;;;;;;;;5092776;28;20103;-68
2024/03/20 15:06:26;;;;;;;20.92;9.43;;;;;;;;;;5092934;28;20077;-68
2024/03/20 15:09:12;;;;;;;25.40;10.35;;;;;;;;;;5092882;28;20027;-68
2024/03/20 15:11:59;;;;;;;25.55;10.43;;;;;;;;;;5094203;28;20016;-68
2024/03/20 15:14:44;;;;;;;23.27;10.18;;;;;;;;;;5092490;28;20486;-68
2024/03/20 15:17:32;;;;;;;22.27;9.80;;;;;;;;;;5092540;28;20031;-68
2024/03/20 15:20:17;;;;;;;21.83;10.70;;;;;;;;;;5091827;28;20027;-68
2024/03/20 15:23:11;;;;;;;27.65;10.65;;;;;;;;;;5093038;28;20016;-68
2024/03/20 15:25:57;;;;;;;25.55;9.38;;;;;;;;;;5077540;28;20442;-68
2024/03/20 15:28:43;;;;;;;19.90;8.50;;;;;;;;;;5092944;28;20497;-68
2024/03/20 15:31:29;;;;;;;19.13;7.82;;;;;;;;;;5093580;28;20020;-68
2024/03/20 15:34:15;;;;;;;16.10;8.13;;;;;;;;;;5092314;28;20016;-68
2024/03/20 15:37:01;;;;;;;19.13;8.70;;;;;;;;;;5077549;28;20068;-68
2024/03/20 15:39:46;;;;;;;22.52;9.70;;;;;;;;;;5071890;28;20419;-68
2024/03/20 15:42:32;;;;;;;19.15;8.60;;;;;;;;;;5073650;28;20028;-68
2024/03/20 15:45:18;;;;;;;30.45;11.07;;;;;;;;;;5072106;28;20100;-68
2024/03/20 15:48:05;;;;;;;21.27;8.43;;;;;;;;;;5072334;28;20389;-68
2024/03/20 15:50:51;;;;;;;24.35;9.02;;;;;;;;;;5072946;28;20038;-68
2024/03/20 15:53:36;;;;;;;19.73;8.43;;;;;;;;;;5072974;28;20028;-68
2024/03/20 15:56:22;;;;;;;19.13;7.72;;;;;;;;;;5072089;28;20025;-68
2024/03/20 15:59:10;;;;;;;22.30;6.53;;;;;;;;;;5073370;28;20036;-68
2024/03/20 16:01:56;;;;;;;22.33;8.82;;;;;;;;;;5073889;28;20039;-68
2024/03/20 16:04:42;;;;;;;17.23;8.07;;;;;;;;;;5058440;28;20024;-68
2024/03/20 16:07:28;;;;;;;20.45;8.07;;;;;;;;;;5071655;28;20099;-68
2024/03/20 16:10:14;;;;;;;18.45;8.98;;;;;;;;;;5072210;28;20089;-68
2024/03/20 16:12:59;;;;;;;18.20;8.70;;;;;;;;;;5072851;28;20082;-68